Maxwell, Nebraska
Current Conditions -  °F | °C
As of 1:53 PM on Thursday 30 Oct 2014 (Local Time) from KLBF Reporting Station
Clear Clear  
Wind Chill: 64°   Ceiling: Unl
Heat Index: 64°   Visibility: 10mi
Dew Point: 32°   Wind: 20mph
Humidity: 30%   Direction: 330°NNW
Pressure: 30.25"   Gusts: 29mph
Location:  41.08°N, 100.52°W
Report Text: KLBF 301853Z AUTO 33017G25KT 10SM CLR 18/00 A3025 RMK AO2 PK WND 34028/1811 SLP241 T01780000
Loading
Personal Weather Stations






























Interactive Weather Map
Tropical Storm Tracking
New forecast layout! Learn more

10-Day Weather Forecast

Advertisements
Track Severe Weather on mobile